Flight Track Log - Related Links

Times and Time Zones

All times are in EST time to prevent confusion due to time zone crossing. See the EJA221P flight status page for this flight to view local times or setup timezone preferences in your user account.

Time Position Orientation Groundspeed Altitude Reporting Facility
EST Latitude Longitude Course Direction KTS MPH feet Rate Location/Type
Mon 11:41:22 AM 38.6500 -90.7333 79° East 183 211 2,700  Level Gateway (St. Louis) TRACON
Mon 11:42:19 AM 38.6914 -90.7308 North 199 229 5,300 3,487 Climbing Kansas City Center
Mon 11:43:19 AM 38.7228 -90.6594 61° Northeast 248 285 9,500 4,017 Climbing Kansas City Center
Mon 11:44:20 AM 38.7300 -90.5358 86° East 309 356 13,400 4,258 Climbing Kansas City Center
Mon 11:45:23 AM 38.7408 -90.3717 85° East 367 422 18,300 3,871 Climbing Kansas City Center
Mon 11:46:00 AM 38.8145 -89.9097 79° East  Level Estimated
Mon 11:46:24 AM 38.7478 -90.2292 86° East 390 449 21,400  Level Kansas City Center
Mon 11:47:26 AM 38.7575 -90.0658 86° East 447 514 24,300 2,571 Climbing Kansas City Center
Mon 11:48:30 AM 38.7672 -89.9128 85° East 475 547 26,800 2,806 Climbing Kansas City Center
Mon 11:49:30 AM 38.7797 -89.6992 86° East 496 571 30,100 2,661 Climbing Kansas City Center
Mon 11:50:34 AM 38.7914 -89.5119 85° East 521 600 32,300 1,392 Climbing Kansas City Center
Mon 11:51:35 AM 38.8158 -89.3194 81° East 546 628 33,000 347 Climbing Kansas City Center
Mon 11:52:35 AM 38.8400 -89.1264 81° East 548 631 33,000 341 Level Kansas City Center
Mon 11:53:38 AM 38.8656 -88.9358 80° East 545 627 33,700 1,258 Climbing Kansas City Center
Mon 11:54:39 AM 38.8925 -88.7397 80° East 555 639 35,600 1,597 Climbing Kansas City Center
Mon 11:55:42 AM 38.9175 -88.5292 81° East 561 646 37,000 1,210 Climbing Kansas City Center
Mon 11:56:43 AM 38.9636 -88.3333 73° East 569 655 38,100 952 Climbing Kansas City Center
Mon 11:57:48 AM 39.0292 -88.1003 70° East 573 659 39,000 557 Climbing Kansas City Center
Mon 11:58:20 AM 39.0472 -88.0269 72° East 568 654 39,000  Level Indianapolis Center
Mon 11:59:22 AM 39.1114 -87.7956 70° East 567 652 39,000  Level Indianapolis Center
Mon 12:00:23 PM 39.1639 -87.6008 71° East 570 656 39,000  Level Indianapolis Center
Mon 12:01:25 PM 39.2106 -87.4322 70° East 567 652 39,000  Level Indianapolis Center
Mon 12:02:27 PM 39.2714 -87.2025 71° East 570 656 39,000  Level Indianapolis Center
Mon 12:03:29 PM 39.3225 -87.0114 71° East 569 655 39,000  Level Indianapolis Center
Mon 12:04:30 PM 39.3747 -86.8208 70° East 568 654 39,000  Level Indianapolis Center
Mon 12:05:32 PM 39.4253 -86.6303 71° East 566 651 39,000 -48 Level Indianapolis Center
Mon 12:06:34 PM 39.4750 -86.4386 71° East 569 655 38,900 -585 Descending Indianapolis Center
Mon 12:07:35 PM 39.5225 -86.2506 72° East 564 649 37,800 -1,220 Descending Indianapolis Center
Mon 12:08:37 PM 39.5811 -86.0269 71° East 561 646 36,400 -1,403 Descending Indianapolis Center
Mon 12:09:39 PM 39.6292 -85.8386 72° East 560 644 34,900 -1,694 Descending Indianapolis Center
Mon 12:10:41 PM 39.6944 -85.6594 65° Northeast 555 639 32,900 -1,902 Descending Indianapolis Center
Mon 12:11:42 PM 39.7617 -85.4844 63° Northeast 548 631 31,000 -1,854 Descending Indianapolis Center
Mon 12:12:44 PM 39.8242 -85.3128 65° Northeast 533 613 29,100 -968 Descending Indianapolis Center
Mon 12:13:46 PM 39.8997 -85.1122 64° Northeast 519 597 29,000 -629 Descending Indianapolis Center
Mon 12:14:48 PM 39.9611 -84.9436 65° Northeast 519 597 27,800 -1,463 Descending Indianapolis Center
Mon 12:15:49 PM 40.0256 -84.7703 64° Northeast 508 585 26,000 -2,000 Descending Indianapolis Center
Mon 12:16:51 PM 40.0842 -84.6092 65° Northeast 494 568 23,700 -2,177 Descending Indianapolis Center
Mon 12:17:53 PM 40.1417 -84.4508 65° Northeast 484 557 21,500 -2,032 Descending Indianapolis Center
Mon 12:18:55 PM 40.1978 -84.3003 64° Northeast 464 534 19,500 -1,756 Descending Indianapolis Center
Mon 12:19:56 PM 40.2492 -84.1531 65° Northeast 446 513 17,900 -1,415 Descending Indianapolis Center
Mon 12:20:58 PM 40.2944 -84.0111 67° East 427 491 16,600 -1,306 Descending Indianapolis Center
Mon 12:22:00 PM 40.3228 -83.8708 75° East 401 461 15,200 -1,527 Descending Indianapolis Center
Mon 12:22:48 PM 40.3481 -83.7347 76° East 386 444 13,800 -1,574 Descending Indianapolis Center
Mon 12:23:01 PM 40.3558 -83.7069 70° East 387 445 13,600 -1,280 Descending Indianapolis Center
Mon 12:24:03 PM 40.3803 -83.5731 76° East 378 435 12,200 -1,455 Descending Indianapolis Center
Mon 12:24:07 PM 40.3822 -83.5619 77° East 373 429 12,000 -1,200 Descending Indianapolis Center
Mon 12:25:08 PM 40.4078 -83.4314 76° East 373 429 10,900 -600 Descending Indianapolis Center
Mon 12:26:07 PM 40.3858 -83.3233 105° East 347 399 10,800 -295 Descending Indianapolis Center
Mon 12:26:09 PM 40.3794 -83.3139 132° Southeast 337 388 10,600 -1,500 Descending Indianapolis Center
Mon 12:27:03 PM 40.3294 -83.2206 125° Southeast 340 391 9,400 -1,017 Descending Indianapolis Center
Mon 12:27:08 PM 40.3328 -83.2200 North 339 390 9,600 -1,180 Climbing Indianapolis Center
Mon 12:28:04 PM 40.2761 -83.1211 127° Southeast 329 379 8,200 -1,258 Descending Indianapolis Center
Mon 12:28:10 PM 40.2789 -83.1219 347° North 335 386 8,300 -1,475 Climbing Indianapolis Center
Mon 12:29:05 PM 40.2256 -83.0336 128° Southeast 299 344 6,700 -1,452 Descending Indianapolis Center
Mon 12:29:12 PM 40.2272 -83.0319 37° Northeast 319 367 6,800 -800 Climbing Indianapolis Center
Mon 12:30:05 PM 40.1811 -82.9494 126° Southeast 281 323 5,900 -787 Descending Indianapolis Center
Mon 12:30:13 PM 40.1803 -82.9467 111° Southeast 301 346 6,000  Climbing Indianapolis Center
Mon 12:31:06 PM 40.1403 -82.8719 125° Southeast 245 282 5,900  Descending Indianapolis Center
Mon 12:31:15 PM 40.1417 -82.8725 343° North 264 304 6,000 -269 Climbing Indianapolis Center
Mon 12:32:13 PM 40.1006 -82.7781 120° Southeast 269 310 5,600 -393 Descending Indianapolis Center
Mon 12:32:16 PM 40.1022 -82.7739 62° Northeast 263 303 5,600 -1,500 Level Indianapolis Center
Mon 12:33:13 PM 40.0992 -82.6819 92° East 259 298 4,100 -1,355 Descending Indianapolis Center
Mon 12:33:18 PM 40.0978 -82.6778 114° Southeast 272 313 4,200 -245 Climbing Indianapolis Center
Mon 12:34:02 PM 40.0856 -82.6225 106° East 225 259 3,900 -194 Descending Indianapolis Center
Mon 12:34:20 PM 40.0697 -82.6167 164° South 245 282 4,000 -608 Climbing Indianapolis Center
Mon 12:35:21 PM 40.0114 -82.6186 181° South 223 257 3,100 -606 Descending Indianapolis Center
Mon 12:36:09 PM 39.9911 -82.6678 242° Southwest 161 185 2,900 -97 Descending Indianapolis Center
Mon 12:36:23 PM 39.9900 -82.6722 252° West 184 212 3,000  Climbing Indianapolis Center
Mon 12:37:16 PM 39.9919 -82.7281 273° West 152 175 2,900  Descending Indianapolis Center
Mon 12:37:24 PM 39.9911 -82.7283 194° South 163 188 3,000 -492 Climbing Indianapolis Center
Mon 12:38:17 PM 39.9956 -82.7778 277° West 138 159 2,400 -484 Descending Indianapolis Center
Mon 12:38:26 PM 39.9956 -82.7786 270° West 151 174 2,500 -727 Climbing Indianapolis Center
Mon 12:39:23 PM 39.9989 -82.8331 275° West 126 145 1,600 -787 Descending Indianapolis Center
Mon 12:39:27 PM 39.9983 -82.8253 95° East 140 161 1,700 -91 Climbing Indianapolis Center
Mon 12:40:29 PM 40.0019 -82.8769 275° West 134 154 1,500 -194 Descending Indianapolis Center

Login

Don't have an account? Register now (free) for customized features, flight alerts, and more!